Portada
METAR-TAF:

METAR-TAF

Aeroports :

Kajaani, Finlàndia

latitud: 64-17N, longitud: 027-41E, altitud: 143 m

Observació

L'informe es va fer fa 15 minuts, a les 21:50 UTC
Vent 1 kt amb direcció variable
Temperatura 6°C
Humitat 61%
Pressió 1028 hPa
Visibilitat 10 km o més
sense núvols per sota de 1500 mi sense presència de cumulonimbus.

METAR: EFKI 252150Z AUTO VRB01KT CAVOK 06/M01 Q1028

Hora: 01:05 (22:05 UTC)


TAF: manca

Observacions i pronòstics meteorològics de més de 4000 aeroports (METAR i TAF).

Les estacions disponibles són els punts grocs i vermells al mapa.

Posi el ratolí al punt desitjat per veure el nom de l'estació.

Feu clic per veure les observacions i els pronòstics meteorològics.

Per canviar el mapa: feu clic els botons verds amb una creu de color negre per apropar; al botó verd amb un guió per allunyar la imatge; o en les fletxes verdes per a mapes adjacents.


METAR-TAF: